Flight Track Log - Related Links

Times and Time Zones

All times are in EDT time to prevent confusion due to time zone crossing. See the TPA725 flight status page for this flight to view local times or setup timezone preferences in your user account.

Time Position Orientation Groundspeed Altitude Reporting Facility
EDT Latitude Longitude Course Direction KTS MPH feet Rate Location/Type
Thu 01:05:50 PM 25.7836 -80.2764 112° Southeast 175 201 900  Level Miami Center
Thu 01:06:33 PM 25.7697 -80.2392 112° Southeast 198 228 2,100 2,158 Climbing Miami Center
Thu 01:08:09 PM 25.7411 -80.1183 105° East 284 327 5,900 2,538 Climbing Miami Center
Thu 01:09:09 PM 25.7200 -80.0347 106° East 279 321 8,700 2,550 Climbing Miami Center
Thu 01:10:09 PM 25.7011 -79.9419 103° East 291 335 11,000 2,200 Climbing Miami Center
Thu 01:11:09 PM 25.6761 -79.8331 104° East 323 372 13,100 2,450 Climbing Miami Center
Thu 01:12:09 PM 25.6681 -79.7106 94° East 362 417 15,900 2,600 Climbing Miami Center
Thu 01:13:09 PM 25.6350 -79.5900 107° East 385 443 18,300 2,150 Climbing Miami Center
Thu 01:14:09 PM 25.6017 -79.4603 106° East 417 480 20,200 1,650 Climbing Miami Center
Thu 01:15:09 PM 25.5667 -79.3192 105° East 450 518 21,600 2,200 Climbing Miami Center
Thu 01:16:09 PM 25.5292 -79.1733 106° East 470 541 24,600 2,500 Climbing Miami Center
Thu 01:17:09 PM 25.4917 -79.0319 106° East 481 554 26,600 1,850 Climbing Miami Center
Thu 01:18:09 PM 25.4178 -78.9294 129° Southeast 469 540 28,300 1,850 Climbing Miami Center
Thu 01:19:09 PM 25.3233 -78.8200 134° Southeast 480 552 30,300 2,050 Climbing Miami Center
Thu 01:20:09 PM 25.2308 -78.7081 132° Southeast 480 552 32,400 1,900 Climbing Miami Center
Thu 01:21:09 PM 25.1400 -78.5967 132° Southeast 486 559 34,100 1,450 Climbing Miami Center
Thu 01:22:09 PM 25.0514 -78.4853 131° Southeast 486 559 35,300 1,050 Climbing Miami Center
Thu 01:23:09 PM 24.9567 -78.3694 132° Southeast 492 566 36,200 950 Climbing Miami Center
Thu 01:24:09 PM 24.8636 -78.2514 131° Southeast 498 573 37,200 1,000 Climbing Miami Center
Thu 01:25:09 PM 24.7667 -78.1358 133° Southeast 504 580 38,200 900 Climbing Miami Center
Thu 01:26:09 PM 24.6692 -78.0183 132° Southeast 509 586 39,000 400 Climbing Miami Center
Thu 01:27:09 PM 24.5739 -77.9008 132° Southeast 509 586 39,000  Level Miami Center
Thu 01:28:09 PM 24.4786 -77.7858 132° Southeast 509 586 39,000  Level Miami Center
Thu 01:29:09 PM 24.3853 -77.6711 132° Southeast 509 586 39,000  Level Miami Center
Thu 01:30:09 PM 24.2917 -77.5589 132° Southeast 503 579 39,000  Level Miami Center
Thu 01:31:09 PM 24.1983 -77.4444 132° Southeast 503 579 39,000  Level Miami Center
Thu 01:32:09 PM 24.1044 -77.3347 133° Southeast 503 579 39,000  Level Miami Center
Thu 01:33:09 PM 24.0128 -77.2206 131° Southeast 503 579 39,000  Level Miami Center
Thu 01:34:09 PM 23.9192 -77.1089 133° Southeast 503 579 39,000  Level Miami Center
Thu 01:35:09 PM 23.8253 -76.9975 133° Southeast 498 573 39,000  Level Miami Center
Thu 01:36:09 PM 23.7292 -76.8817 132° Southeast 503 579 39,000  Level Miami Center
Thu 01:37:09 PM 23.6331 -76.7706 133° Southeast 503 579 39,000  Level Miami Center
Thu 01:38:09 PM 23.5367 -76.6572 133° Southeast 503 579 39,000  Level Miami Center
Thu 01:39:09 PM 23.4403 -76.5419 132° Southeast 503 579 39,000  Level Miami Center
Thu 01:40:09 PM 23.3419 -76.4267 133° Southeast 503 579 39,000  Level Miami Center
Thu 01:41:09 PM 23.2453 -76.3117 132° Southeast 503 579 39,000  Level Miami Center
Thu 01:42:09 PM 23.1342 -76.1856 134° Southeast 509 586 39,000  Level Miami Center
Thu 01:43:09 PM 23.0375 -76.0711 133° Southeast 509 586 39,000  Level Miami Center
Thu 01:44:09 PM 22.9386 -75.9544 133° Southeast 514 592 39,000  Level Miami Center
Thu 01:45:09 PM 22.8417 -75.8422 133° Southeast 514 592 39,000  Level Miami Center
Thu 01:46:09 PM 22.7447 -75.7283 133° Southeast 514 592 39,000  Level Miami Center
Thu 01:47:09 PM 22.6500 -75.6164 133° Southeast 514 592 39,000  Level Miami Center
Thu 01:48:09 PM 22.5528 -75.5028 133° Southeast 514 592 39,000  Level Miami Center
Thu 01:49:09 PM 22.4556 -75.3936 134° Southeast 514 592 39,000  Level Miami Center
Thu 01:50:09 PM 22.3606 -75.2825 133° Southeast 514 592 39,000  Level Miami Center
Thu 01:51:09 PM 22.2675 -75.1714 132° Southeast 509 586 39,000  Level Miami Center
Thu 01:52:09 PM 22.1700 -75.0628 134° Southeast 504 580 39,000  Level Miami Center
Thu 01:53:09 PM 22.0728 -74.9519 133° Southeast 504 580 39,000  Level Miami Center
Thu 01:54:09 PM 21.9753 -74.8414 134° Southeast 504 580 39,000  Level Miami Center
Thu 01:55:09 PM 21.8714 -74.7422 138° Southeast 504 580 39,000  Level Miami Center
Thu 01:56:09 PM 21.7636 -74.6478 141° Southeast 504 580 39,000  Level Miami Center
Thu 01:57:09 PM 21.6556 -74.5492 140° Southeast 504 580 39,000  Level Miami Center
Thu 01:58:09 PM 21.5497 -74.4572 141° Southeast 504 580 39,000  Level Miami Center
Thu 01:59:09 PM 21.4417 -74.3589 140° Southeast 504 580 39,000  Level Miami Center
Thu 02:00:09 PM 21.3339 -74.2650 141° Southeast 504 580 39,000  Level Miami Center
Thu 02:01:09 PM 21.2278 -74.1714 141° Southeast 504 580 39,000  Level Miami Center
Thu 02:02:09 PM 21.1236 -74.0689 137° Southeast 504 580 39,000  Level Miami Center
Thu 02:03:09 PM 21.0219 -73.9842 142° Southeast 509 586 39,000  Level Miami Center
Thu 02:04:09 PM 20.9136 -73.8911 141° Southeast 504 580 39,000  Level Miami Center
Thu 02:05:09 PM 20.8075 -73.7981 141° Southeast 504 580 39,000  Level Miami Center
Thu 02:06:09 PM 20.7056 -73.7050 140° Southeast 496 571 39,000  Level Miami Center
Thu 02:07:09 PM 20.5950 -73.6122 142° Southeast 501 577 39,000  Level Miami Center
Thu 02:08:09 PM 20.4867 -73.5217 142° Southeast 501 577 39,000  Level Miami Center
Thu 02:09:09 PM 20.3806 -73.4292 141° Southeast 501 577 39,000  Level Miami Center
Thu 02:10:09 PM 20.2742 -73.3367 141° Southeast 501 577 39,000  Level Miami Center
Thu 02:11:09 PM 20.1678 -73.2444 141° Southeast 492 566 39,000  Level Miami Center
Thu 02:12:09 PM 20.0594 -73.1700 147° Southeast 486 559 39,000  Level Miami Center
Thu 02:14:00 PM 19.8568 -73.0570 152° Southeast  Level FlightAware Approximate
Thu 02:21:00 PM 19.0890 -72.6326 153° Southeast  Level FlightAware Approximate
Thu 02:22:00 PM 18.9792 -72.5725 153° Southeast  Level FlightAware Approximate
Thu 02:23:00 PM 18.8693 -72.5125 153° Southeast  Level FlightAware Approximate
Thu 02:24:00 PM 18.7595 -72.4526 153° Southeast  Level FlightAware Approximate
Thu 02:25:00 PM 18.6495 -72.3927 153° Southeast  Level FlightAware Approximate
Thu 02:26:00 PM 18.5396 -72.3329 153° Southeast  Level FlightAware Approximate
Thu 02:27:00 PM 18.4297 -72.2731 153° Southeast  Level FlightAware Approximate
Thu 02:28:00 PM 18.3198 -72.2135 153° Southeast  Level FlightAware Approximate
Thu 02:29:00 PM 18.2098 -72.1539 153° Southeast  Level FlightAware Approximate
Thu 02:30:00 PM 18.0998 -72.0944 153° Southeast  Level FlightAware Approximate
Thu 02:31:00 PM 17.9898 -72.0350 153° Southeast  Level FlightAware Approximate
Thu 02:32:00 PM 17.8798 -71.9757 153° Southeast  Level FlightAware Approximate
Thu 02:33:00 PM 17.7697 -71.9164 153° Southeast  Level FlightAware Approximate
Thu 02:34:00 PM 17.6597 -71.8572 153° Southeast  Level FlightAware Approximate
Thu 02:35:00 PM 17.5496 -71.7981 153° Southeast  Level FlightAware Approximate
Thu 02:36:00 PM 17.4395 -71.7390 153° Southeast  Level FlightAware Approximate
Thu 02:37:00 PM 17.3295 -71.6799 153° Southeast  Level FlightAware Approximate
Thu 02:38:00 PM 17.2195 -71.6205 153° Southeast  Level FlightAware Approximate
Thu 02:39:00 PM 17.1096 -71.5612 153° Southeast  Level FlightAware Approximate
Thu 02:40:00 PM 16.9997 -71.5019 153° Southeast  Level FlightAware Approximate
Thu 02:41:00 PM 16.8897 -71.4427 153° Southeast  Level FlightAware Approximate
Thu 02:42:00 PM 16.7798 -71.3836 153° Southeast  Level FlightAware Approximate
Thu 02:43:00 PM 16.6698 -71.3246 153° Southeast  Level FlightAware Approximate
Thu 02:44:00 PM 16.5598 -71.2656 153° Southeast  Level FlightAware Approximate
Thu 02:45:00 PM 16.4498 -71.2067 153° Southeast  Level FlightAware Approximate
Thu 02:46:00 PM 16.3398 -71.1479 153° Southeast  Level FlightAware Approximate
Thu 02:47:00 PM 16.2297 -71.0891 153° Southeast  Level FlightAware Approximate
Thu 02:48:00 PM 16.1196 -71.0304 153° Southeast  Level FlightAware Approximate
Thu 02:49:00 PM 16.0096 -70.9717 153° Southeast  Level FlightAware Approximate
Thu 02:50:00 PM 15.8989 -70.9142 153° Southeast  Level FlightAware Approximate
Thu 02:51:00 PM 15.7883 -70.8569 153° Southeast  Level FlightAware Approximate
Thu 02:52:00 PM 15.6776 -70.7996 154° Southeast  Level FlightAware Approximate
Thu 02:53:00 PM 15.5669 -70.7423 154° Southeast  Level FlightAware Approximate
Thu 02:54:00 PM 15.4562 -70.6852 154° Southeast  Level FlightAware Approximate
Thu 02:55:00 PM 15.3454 -70.6281 154° Southeast  Level FlightAware Approximate
Thu 02:56:00 PM 15.2347 -70.5710 154° Southeast  Level FlightAware Approximate
Thu 02:57:00 PM 15.1239 -70.5140 154° Southeast  Level FlightAware Approximate
Thu 02:58:00 PM 15.0131 -70.4571 154° Southeast  Level FlightAware Approximate
Thu 02:59:00 PM 14.9024 -70.4002 154° Southeast  Level FlightAware Approximate
Thu 03:00:00 PM 14.7915 -70.3434 154° Southeast  Level FlightAware Approximate
Thu 03:01:00 PM 14.6807 -70.2867 154° Southeast  Level FlightAware Approximate
Thu 03:02:00 PM 14.5699 -70.2299 154° Southeast  Level FlightAware Approximate
Thu 03:03:00 PM 14.4590 -70.1733 154° Southeast  Level FlightAware Approximate
Thu 03:04:00 PM 14.3482 -70.1167 154° Southeast  Level FlightAware Approximate
Thu 03:05:00 PM 14.2374 -70.0601 153° Southeast  Level FlightAware Approximate
Thu 03:06:00 PM 14.1271 -70.0023 153° Southeast  Level FlightAware Approximate
Thu 03:07:00 PM 14.0168 -69.9447 153° Southeast  Level FlightAware Approximate
Thu 03:08:00 PM 13.9065 -69.8871 153° Southeast  Level FlightAware Approximate
Thu 03:09:00 PM 13.7961 -69.8296 153° Southeast  Level FlightAware Approximate
Thu 03:10:00 PM 13.6858 -69.7721 153° Southeast  Level FlightAware Approximate
Thu 03:11:00 PM 13.5754 -69.7147 153° Southeast  Level FlightAware Approximate
Thu 03:12:00 PM 13.4650 -69.6573 153° Southeast  Level FlightAware Approximate
Thu 03:13:00 PM 13.3547 -69.6000 153° Southeast  Level FlightAware Approximate
Thu 03:14:00 PM 13.2443 -69.5427 153° Southeast  Level FlightAware Approximate
Thu 03:15:00 PM 13.1339 -69.4855 153° Southeast  Level FlightAware Approximate
Thu 03:16:00 PM 13.0234 -69.4283 153° Southeast  Level FlightAware Approximate
Thu 03:17:00 PM 12.9130 -69.3712 153° Southeast  Level FlightAware Approximate
Thu 03:18:00 PM 12.8026 -69.3141 153° Southeast  Level FlightAware Approximate
Thu 03:19:00 PM 12.6921 -69.2571 153° Southeast  Level FlightAware Approximate
Thu 03:20:00 PM 12.5816 -69.2001 153° Southeast  Level FlightAware Approximate
Thu 03:21:00 PM 12.4709 -69.1438 154° Southeast  Level FlightAware Approximate
Thu 03:22:00 PM 12.3598 -69.0882 154° Southeast  Level FlightAware Approximate
Thu 03:23:00 PM 12.2486 -69.0326 154° Southeast  Level FlightAware Approximate
Thu 03:24:00 PM 12.1375 -68.9771 154° Southeast  Level FlightAware Approximate
Thu 03:25:00 PM 12.0264 -68.9215 154° Southeast  Level FlightAware Approximate
Thu 03:26:00 PM 11.9177 -68.8618 147° Southeast  Level FlightAware Approximate
Thu 03:27:00 PM 11.8115 -68.7974 154° Southeast  Level FlightAware Approximate
Thu 03:28:00 PM 11.7004 -68.7419 154° Southeast  Level FlightAware Approximate
Thu 03:29:00 PM 11.5900 -68.6850 151° Southeast  Level FlightAware Approximate
Thu 03:30:00 PM 11.4817 -68.6241 151° Southeast  Level FlightAware Approximate
Thu 03:31:00 PM 11.3734 -68.5632 151° Southeast  Level FlightAware Approximate
Thu 03:32:00 PM 11.2630 -68.5064 154° Southeast  Level FlightAware Approximate
Thu 03:33:00 PM 11.1520 -68.4509 154° Southeast  Level FlightAware Approximate
Thu 03:34:00 PM 11.0410 -68.3954 154° Southeast  Level FlightAware Approximate
Thu 03:35:00 PM 10.9300 -68.3399 154° Southeast  Level FlightAware Approximate
Thu 03:36:00 PM 10.8196 -68.2831 151° Southeast  Level FlightAware Approximate
Thu 03:37:00 PM 10.7111 -68.2228 151° Southeast  Level FlightAware Approximate
Thu 03:38:00 PM 10.6021 -68.1633 152° Southeast  Level FlightAware Approximate
Thu 03:39:00 PM 10.4932 -68.1036 151° Southeast  Level FlightAware Approximate
Thu 03:40:00 PM 10.3847 -68.0433 151° Southeast  Level FlightAware Approximate
Thu 03:41:00 PM 10.2734 -67.9950 154° Southeast  Level FlightAware Approximate
Thu 03:42:00 PM 10.1680 -67.9302 144° Southeast  Level FlightAware Approximate
Thu 03:43:00 PM 10.1500 -67.9167 144° Southeast  Level FlightAware Approximate
Thu 03:44:00 PM 10.1497 -67.9284 144° Southeast  Level Estimated
Thu 03:45:00 PM 10.1497 -67.9284 144° Southeast  Level Estimated
Thu 03:46:00 PM 10.1497 -67.9284 144° Southeast  Level Estimated
Thu 03:47:00 PM 10.1497 -67.9284 144° Southeast  Level Estimated
Thu 03:48:00 PM 10.1497 -67.9284 144° Southeast  Level Estimated
Thu 03:49:00 PM 10.1497 -67.9284 144° Southeast  Level Estimated
Thu 03:50:00 PM 10.1497 -67.9284 144° Southeast  Level Estimated
Thu 03:51:00 PM 10.1497 -67.9284 144° Southeast  Level Estimated
Thu 03:52:00 PM 10.1497 -67.9284 144° Southeast  Level Estimated
Thu 03:53:00 PM 10.1497 -67.9284 144° Southeast  Level Estimated
Thu 03:54:00 PM 10.1497 -67.9284 144° Southeast  Level Estimated
Thu 03:55:00 PM 10.1497 -67.9284 144° Southeast  Level Estimated
Thu 03:56:00 PM 10.1497 -67.9284 144° Southeast  Level Estimated
Thu 03:57:00 PM 10.1497 -67.9284 144° Southeast  Level Estimated
Thu 03:58:00 PM 10.1497 -67.9284 144° Southeast  Level Estimated
Thu 03:59:00 PM 10.1497 -67.9284 144° Southeast  Level Estimated
Thu 04:00:00 PM 10.1497 -67.9284 144° Southeast  Level Estimated
Thu 04:01:00 PM 10.1497 -67.9284 144° Southeast  Level Estimated
Thu 04:02:00 PM 10.1497 -67.9284 144° Southeast  Level Estimated

Login

Don't have an account? Register now (free) for customized features, flight alerts, and more!